Time;durP1;ratioP1;P1;durP2;ratioP2;P2;SDS_P1;SDS_P2;PMS_P1;PMS_P2;Temp;Humidity;BMP_temperature;BMP_pressure;BME280_temperature;BME280_humidity;BME280_pressure;Samples;Min_cycle;Max_cycle;Signal;HPM_P1;HPM_P2
2023/07/11 00:00:03;;;;;;;0.80;0.55;;;23.30;68.80;;;;;;5025066;28;20403;-80
2023/07/11 00:02:29;;;;;;;0.60;0.40;;;23.30;68.90;;;;;;5024772;28;20046;-80
2023/07/11 00:04:54;;;;;;;1.35;0.60;;;23.30;68.90;;;;;;5033424;28;20038;-80
2023/07/11 00:07:20;;;;;;;0.60;0.40;;;23.30;68.90;;;;;;5031830;28;20042;-80
2023/07/11 00:09:49;;;;;;;0.40;0.30;;;23.30;68.90;;;;;;5026748;28;20037;-80
2023/07/11 00:12:15;;;;;;;0.40;0.40;;;23.20;68.90;;;;;;5035961;28;20042;-79
2023/07/11 00:14:41;;;;;;;0.52;0.50;;;23.20;69.00;;;;;;5041995;28;20042;-80
2023/07/11 00:17:06;;;;;;;0.45;0.30;;;23.20;69.00;;;;;;5032826;28;20041;-80
2023/07/11 00:19:51;;;;;;;0.70;0.40;;;23.20;69.00;;;;;;5032284;28;20099;-78
2023/07/11 00:22:17;;;;;;;0.40;0.40;;;23.20;69.00;;;;;;5035811;28;20507;-79
2023/07/11 00:24:43;;;;;;;0.88;0.47;;;23.20;69.00;;;;;;5034806;28;20091;-78
2023/07/11 00:27:10;;;;;;;5.38;0.60;;;23.20;69.00;;;;;;5012930;28;20045;-79
2023/07/11 00:29:35;;;;;;;0.30;0.30;;;23.20;69.00;;;;;;5010366;28;20060;-79
2023/07/11 00:32:02;;;;;;;0.80;0.40;;;23.20;69.00;;;;;;5033550;28;20515;-79
2023/07/11 00:34:27;;;;;;;0.40;0.30;;;23.20;69.10;;;;;;5024635;28;20136;-78
2023/07/11 00:36:53;;;;;;;0.47;0.32;;;23.20;69.10;;;;;;5032692;28;20128;-79
2023/07/11 00:39:19;;;;;;;0.40;0.40;;;23.20;69.10;;;;;;5030178;28;20045;-78
2023/07/11 00:41:45;;;;;;;0.35;0.35;;;23.20;69.10;;;;;;5042725;28;20049;-79
2023/07/11 00:44:15;;;;;;;0.45;0.43;;;23.20;69.20;;;;;;5032277;28;20477;-79
2023/07/11 00:46:41;;;;;;;1.10;0.38;;;23.20;69.20;;;;;;5025684;28;20518;-79
2023/07/11 00:49:06;;;;;;;1.08;0.50;;;23.20;69.20;;;;;;5050790;28;20102;-79
2023/07/11 00:51:45;;;;;;;0.40;0.35;;;23.20;69.20;;;;;;5038111;28;20149;-79
2023/07/11 00:54:12;;;;;;;0.20;0.20;;;23.20;69.20;;;;;;5048314;28;20041;-79
2023/07/11 00:56:39;;;;;;;0.73;0.50;;;23.20;69.20;;;;;;5028533;28;20057;-78
2023/07/11 00:59:04;;;;;;;1.05;0.40;;;23.20;69.20;;;;;;5047286;28;20051;-79
2023/07/11 01:01:30;;;;;;;0.50;0.40;;;23.20;69.20;;;;;;5032169;28;20050;-79
2023/07/11 01:03:56;;;;;;;1.17;0.30;;;23.20;69.20;;;;;;5035101;28;20055;-79
2023/07/11 01:06:24;;;;;;;0.43;0.32;;;23.20;69.20;;;;;;5033491;28;20099;-78
2023/07/11 01:08:50;;;;;;;0.52;0.40;;;23.10;69.20;;;;;;5025171;28;20072;-79
2023/07/11 01:11:17;;;;;;;0.73;0.55;;;23.10;69.20;;;;;;4998560;28;20049;-79
2023/07/11 01:13:42;;;;;;;0.30;0.20;;;23.20;69.30;;;;;;5046206;28;20499;-79
2023/07/11 01:16:08;;;;;;;0.30;0.30;;;23.20;69.30;;;;;;5036336;28;20045;-80
2023/07/11 01:18:34;;;;;;;0.60;0.40;;;23.20;69.30;;;;;;5010802;28;20072;-79
2023/07/11 01:20:59;;;;;;;0.47;0.45;;;23.20;69.30;;;;;;5039512;28;20057;-79
2023/07/11 01:23:25;;;;;;;0.38;0.30;;;23.20;69.30;;;;;;5041505;28;20088;-78
2023/07/11 01:26:00;;;;;;;0.50;0.50;;;23.20;69.30;;;;;;5041006;28;20042;-79
2023/07/11 01:28:26;;;;;;;0.80;0.50;;;23.20;69.20;;;;;;5009200;28;20041;-79
2023/07/11 01:30:52;;;;;;;0.40;0.40;;;23.20;69.30;;;;;;5014390;28;20041;-80
2023/07/11 01:33:17;;;;;;;0.52;0.43;;;23.20;70.10;;;;;;5010356;28;20088;-79
2023/07/11 01:35:43;;;;;;;1.17;0.43;;;23.20;69.30;;;;;;5002413;28;20377;-79
2023/07/11 01:38:08;;;;;;;0.95;0.40;;;23.10;69.30;;;;;;4997428;28;20530;-79
2023/07/11 01:40:34;;;;;;;0.60;0.40;;;23.20;69.30;;;;;;5040794;28;20108;-79
2023/07/11 01:43:00;;;;;;;0.47;0.47;;;23.20;69.40;;;;;;5001008;28;20049;-78
2023/07/11 01:45:26;;;;;;;1.00;0.43;;;23.20;69.30;;;;;;5022836;28;20091;-78
2023/07/11 01:47:51;;;;;;;0.50;0.50;;;23.20;69.40;;;;;;5011349;28;20534;-79
2023/07/11 01:50:17;;;;;;;0.45;0.40;;;23.20;69.40;;;;;;5037656;28;20066;-78
2023/07/11 01:52:42;;;;;;;1.95;0.43;;;23.10;69.40;;;;;;5027926;28;20466;-78
2023/07/11 01:55:11;;;;;;;1.65;0.40;;;23.20;69.40;;;;;;5030748;28;20524;-79
2023/07/11 01:57:36;;;;;;;0.40;0.40;;;23.20;69.40;;;;;;5004919;28;20459;-79
2023/07/11 02:00:02;;;;;;;1.17;0.45;;;23.20;69.40;;;;;;5012363;28;20062;-79
2023/07/11 02:02:28;;;;;;;0.63;0.60;;;23.20;69.40;;;;;;5038175;28;20054;-79
2023/07/11 02:04:54;;;;;;;0.40;0.40;;;23.20;69.40;;;;;;5028979;28;20037;-79
2023/07/11 02:07:19;;;;;;;0.52;0.40;;;23.20;69.40;;;;;;5014246;28;20503;-79
2023/07/11 02:09:45;;;;;;;0.80;0.30;;;23.20;69.40;;;;;;5013198;28;20104;-79
2023/07/11 02:12:10;;;;;;;0.50;0.50;;;23.20;69.40;;;;;;5024928;28;20127;-79
2023/07/11 02:14:40;;;;;;;0.50;0.50;;;23.20;69.40;;;;;;5024232;28;20054;-78
2023/07/11 02:17:06;;;;;;;0.47;0.40;;;23.20;69.50;;;;;;4990637;28;20412;-78
2023/07/11 02:19:31;;;;;;;0.40;0.38;;;23.20;69.50;;;;;;4988255;28;20039;-78
2023/07/11 02:21:57;;;;;;;0.73;0.63;;;23.10;69.40;;;;;;4992284;28;20061;-78
2023/07/11 02:24:22;;;;;;;0.50;0.43;;;23.20;70.30;;;;;;4990364;28;20584;-78
2023/07/11 02:26:48;;;;;;;0.55;0.40;;;23.20;69.50;;;;;;5003730;28;20447;-78
2023/07/11 02:29:14;;;;;;;0.68;0.30;;;23.20;69.60;;;;;;4996746;28;20043;-79
2023/07/11 02:31:39;;;;;;;0.57;0.45;;;23.20;69.50;;;;;;5003903;28;20054;-79
2023/07/11 02:34:05;;;;;;;0.32;0.32;;;23.20;69.50;;;;;;4986362;28;20047;-79
2023/07/11 02:36:30;;;;;;;0.40;0.40;;;23.10;70.30;;;;;;4975752;28;20575;-78
2023/07/11 02:38:56;;;;;;;0.70;0.40;;;23.20;69.50;;;;;;4984966;28;20404;-78
2023/07/11 02:41:22;;;;;;;0.68;0.52;;;23.20;69.40;;;;;;5007040;28;20507;-78
2023/07/11 02:43:48;;;;;;;0.30;0.30;;;23.20;69.40;;;;;;5028864;28;20538;-78
2023/07/11 02:46:14;;;;;;;1.88;0.60;;;23.20;69.50;;;;;;4986924;28;20610;-79
2023/07/11 02:48:40;;;;;;;0.50;0.50;;;23.20;69.50;;;;;;4989200;28;20120;-79
2023/07/11 02:51:06;;;;;;;0.40;0.40;;;23.10;69.50;;;;;;4986939;28;20042;-79
2023/07/11 02:53:31;;;;;;;0.40;0.40;;;23.20;69.50;;;;;;4988457;28;20039;-79
2023/07/11 02:55:57;;;;;;;0.77;0.77;;;23.20;69.50;;;;;;4989524;28;20422;-79
2023/07/11 02:58:23;;;;;;;0.95;0.60;;;23.20;69.50;;;;;;4997463;28;20042;-79
2023/07/11 03:00:49;;;;;;;0.50;0.50;;;23.20;69.50;;;;;;4998775;28;20038;-79
2023/07/11 03:03:15;;;;;;;0.80;0.30;;;23.20;69.50;;;;;;5009391;28;20057;-79
2023/07/11 03:05:47;;;;;;;0.38;0.38;;;23.20;69.50;;;;;;4987867;28;20105;-79
2023/07/11 03:08:13;;;;;;;0.47;0.32;;;23.10;69.50;;;;;;4993437;28;20056;-79
2023/07/11 03:10:38;;;;;;;0.40;0.40;;;23.20;69.60;;;;;;4991999;28;20042;-79
2023/07/11 03:13:04;;;;;;;0.63;0.63;;;23.10;69.60;;;;;;5010317;28;20123;-79
2023/07/11 03:15:29;;;;;;;0.60;0.60;;;23.20;69.70;;;;;;5015102;28;20406;-79
2023/07/11 03:17:55;;;;;;;1.88;0.57;;;23.10;69.70;;;;;;5046359;28;20128;-79
2023/07/11 03:20:20;;;;;;;0.55;0.52;;;23.20;69.70;;;;;;5022564;28;20029;-79
2023/07/11 03:22:46;;;;;;;0.50;0.50;;;23.20;69.90;;;;;;5042337;28;20073;-79
2023/07/11 03:25:12;;;;;;;0.55;0.55;;;23.20;69.90;;;;;;5032165;28;20049;-79
2023/07/11 03:27:37;;;;;;;0.50;0.50;;;23.20;70.00;;;;;;5035211;28;20458;-79
2023/07/11 03:30:03;;;;;;;1.45;0.60;;;23.20;70.80;;;;;;5043610;28;20045;-79
2023/07/11 03:32:29;;;;;;;0.40;0.40;;;23.20;70.20;;;;;;5043066;28;21238;-79
2023/07/11 03:34:54;;;;;;;0.30;0.30;;;23.20;70.10;;;;;;5044768;28;20120;-79
2023/07/11 03:37:20;;;;;;;0.65;0.40;;;23.20;70.10;;;;;;5044357;28;20116;-79
2023/07/11 03:39:45;;;;;;;0.43;0.40;;;23.20;70.20;;;;;;5032113;28;20511;-79
2023/07/11 03:42:11;;;;;;;0.52;0.50;;;23.10;70.00;;;;;;5028448;28;20052;-79
2023/07/11 03:44:37;;;;;;;0.50;0.50;;;23.20;70.10;;;;;;5030690;28;20029;-79
2023/07/11 03:47:03;;;;;;;0.55;0.45;;;23.10;70.10;;;;;;5034153;28;20045;-79
2023/07/11 03:49:29;;;;;;;0.52;0.50;;;23.20;70.20;;;;;;5054358;28;20040;-78
2023/07/11 03:51:54;;;;;;;0.40;0.40;;;23.10;70.10;;;;;;5049085;28;20102;-79
2023/07/11 03:54:23;;;;;;;0.55;0.40;;;23.10;70.10;;;;;;5047874;28;20045;-79
2023/07/11 03:56:50;;;;;;;0.55;0.50;;;23.20;70.20;;;;;;5028093;28;20045;-79
2023/07/11 03:59:15;;;;;;;0.40;0.40;;;23.10;70.10;;;;;;5050331;28;20072;-79
2023/07/11 04:01:41;;;;;;;0.50;0.40;;;23.20;70.30;;;;;;5045086;28;20042;-78
2023/07/11 04:04:07;;;;;;;0.45;0.38;;;23.10;70.10;;;;;;5036115;28;20067;-79
2023/07/11 04:06:32;;;;;;;0.50;0.50;;;23.10;70.20;;;;;;5014474;28;20044;-78
2023/07/11 04:08:58;;;;;;;0.40;0.40;;;23.10;70.10;;;;;;5040014;28;20124;-79
2023/07/11 04:11:23;;;;;;;0.80;0.50;;;23.10;70.20;;;;;;5054640;28;20041;-77
2023/07/11 04:13:49;;;;;;;0.45;0.40;;;23.10;70.10;;;;;;5043911;28;20048;-78
2023/07/11 04:16:14;;;;;;;0.50;0.40;;;23.10;70.10;;;;;;5071574;28;20036;-79
2023/07/11 04:18:41;;;;;;;0.43;0.43;;;23.10;70.10;;;;;;5050127;28;20060;-79
2023/07/11 04:21:07;;;;;;;0.43;0.40;;;23.10;70.10;;;;;;5049702;28;20029;-79
2023/07/11 04:23:32;;;;;;;0.38;0.38;;;23.10;70.10;;;;;;5065942;28;20060;-79
2023/07/11 04:25:58;;;;;;;0.47;0.47;;;23.10;70.10;;;;;;5034053;28;20045;-79
2023/07/11 04:28:23;;;;;;;1.85;0.45;;;23.10;70.20;;;;;;5053053;28;20044;-79
2023/07/11 04:30:49;;;;;;;0.35;0.30;;;23.10;70.40;;;;;;5051026;28;20041;-79
2023/07/11 04:33:15;;;;;;;0.50;0.50;;;23.10;70.30;;;;;;5029884;28;20450;-79
2023/07/11 04:35:43;;;;;;;0.47;0.43;;;23.10;70.20;;;;;;5025320;28;20045;-79
2023/07/11 04:38:08;;;;;;;0.95;0.40;;;23.10;70.40;;;;;;5031983;28;20064;-79
2023/07/11 04:40:34;;;;;;;0.35;0.35;;;23.10;70.50;;;;;;5031211;28;20053;-79
2023/07/11 04:42:59;;;;;;;0.40;0.40;;;23.10;70.40;;;;;;5049919;28;20041;-79
2023/07/11 04:45:25;;;;;;;0.77;0.63;;;23.10;70.20;;;;;;5046436;28;20039;-79
2023/07/11 04:47:50;;;;;;;0.70;0.50;;;23.10;70.20;;;;;;5019537;28;20418;-78
2023/07/11 04:50:16;;;;;;;1.42;0.85;;;23.10;70.40;;;;;;5045374;28;20072;-78
2023/07/11 04:52:43;;;;;;;3.80;1.57;;;22.90;72.10;;;;;;4694081;28;9999808;-77
2023/07/11 04:55:09;;;;;;;1.65;1.00;;;22.50;74.50;;;;;;5040126;28;20045;-76
2023/07/11 04:57:34;;;;;;;3.10;1.63;;;22.20;76.30;;;;;;5042027;28;20078;-76
2023/07/11 05:00:00;;;;;;;3.13;1.70;;;22.10;77.10;;;;;;5049322;28;20512;-76
2023/07/11 05:02:25;;;;;;;2.22;1.30;;;21.80;78.40;;;;;;5047402;28;20528;-76
2023/07/11 05:04:51;;;;;;;3.28;2.00;;;21.70;78.80;;;;;;5032543;28;20057;-76
2023/07/11 05:07:17;;;;;;;2.47;1.30;;;21.70;79.00;;;;;;5030718;28;20528;-76
2023/07/11 05:09:42;;;;;;;2.67;1.60;;;21.60;79.60;;;;;;5023103;28;20974;-76
2023/07/11 05:12:10;;;;;;;4.20;1.63;;;21.60;79.90;;;;;;5025392;28;20494;-75
2023/07/11 05:14:36;;;;;;;3.70;1.55;;;21.50;80.50;;;;;;5012374;28;20098;-76
2023/07/11 05:17:02;;;;;;;2.17;1.58;;;21.40;80.70;;;;;;5014911;28;20041;-75
2023/07/11 05:19:27;;;;;;;3.58;1.40;;;21.50;80.50;;;;;;5060212;28;20060;-76
2023/07/11 05:21:53;;;;;;;2.35;1.48;;;21.60;79.90;;;;;;5031538;28;20538;-76
2023/07/11 05:24:18;;;;;;;1.58;1.35;;;21.70;79.60;;;;;;5060426;28;20885;-76
2023/07/11 05:26:44;;;;;;;2.88;1.70;;;21.60;80.10;;;;;;5045577;28;20056;-77
2023/07/11 05:29:09;;;;;;;4.80;1.98;;;21.50;80.10;;;;;;5047471;28;20049;-76
2023/07/11 05:31:35;;;;;;;3.10;1.33;;;21.50;80.60;;;;;;5036525;28;20037;-76
2023/07/11 05:34:01;;;;;;;4.32;1.55;;;21.50;80.80;;;;;;5028833;28;20113;-76
2023/07/11 05:36:32;;;;;;;3.53;1.60;;;21.50;80.70;;;;;;5026937;28;20041;-76
2023/07/11 05:39:03;;;;;;;2.10;1.90;;;21.40;80.70;;;;;;5028845;28;20045;-77
2023/07/11 05:41:29;;;;;;;4.28;1.48;;;21.40;81.30;;;;;;5008070;28;20072;-77
2023/07/11 05:43:55;;;;;;;2.15;1.52;;;21.30;81.40;;;;;;5029464;28;20045;-76
2023/07/11 05:46:22;;;;;;;1.95;1.65;;;21.40;81.10;;;;;;5026540;28;20585;-76
2023/07/11 05:48:48;;;;;;;2.20;1.33;;;21.40;81.30;;;;;;5008233;28;20591;-76
2023/07/11 05:51:16;;;;;;;3.08;1.42;;;21.40;80.90;;;;;;5024461;28;20042;-76
2023/07/11 05:53:42;;;;;;;2.45;1.30;;;21.50;80.90;;;;;;5048747;28;20045;-76
2023/07/11 05:56:08;;;;;;;2.72;1.50;;;21.50;81.00;;;;;;5046589;28;20541;-76
2023/07/11 05:58:34;;;;;;;1.17;1.13;;;21.50;80.90;;;;;;5044401;28;20064;-76
2023/07/11 06:00:59;;;;;;;4.05;1.80;;;21.50;81.60;;;;;;5048881;28;20037;-76
2023/07/11 06:03:26;;;;;;;2.15;1.13;;;21.50;81.20;;;;;;5031133;28;20118;-76
2023/07/11 06:05:53;;;;;;;4.18;1.20;;;21.50;81.60;;;;;;5054846;28;29780;-76
2023/07/11 06:08:18;;;;;;;2.20;1.42;;;21.40;81.70;;;;;;5042689;28;20067;-76
2023/07/11 06:10:44;;;;;;;1.92;1.23;;;21.40;81.70;;;;;;5044487;28;20045;-77
2023/07/11 06:13:11;;;;;;;1.58;1.23;;;21.40;81.90;;;;;;5046902;28;20197;-76
2023/07/11 06:15:36;;;;;;;2.08;1.30;;;21.50;81.70;;;;;;5055573;28;20041;-76
2023/07/11 06:18:02;;;;;;;2.80;1.20;;;21.50;81.30;;;;;;5029971;28;20738;-77
2023/07/11 06:20:28;;;;;;;2.45;0.77;;;21.50;81.80;;;;;;5045588;28;20103;-76
2023/07/11 06:22:53;;;;;;;2.33;1.30;;;21.50;81.70;;;;;;5062264;28;20046;-76
2023/07/11 06:25:19;;;;;;;1.52;1.20;;;21.50;81.70;;;;;;5030365;28;20462;-77
2023/07/11 06:27:45;;;;;;;1.73;1.10;;;21.50;81.60;;;;;;5026978;28;20059;-76
2023/07/11 06:30:11;;;;;;;2.45;1.20;;;21.50;81.70;;;;;;5028112;28;20034;-76
2023/07/11 06:32:36;;;;;;;0.88;0.82;;;21.50;81.70;;;;;;5029147;28;20045;-76
2023/07/11 06:35:02;;;;;;;2.05;1.10;;;21.60;81.30;;;;;;5029666;28;20048;-76
2023/07/11 06:37:27;;;;;;;2.00;0.80;;;21.70;80.60;;;;;;5047530;28;20402;-78
2023/07/11 06:39:53;;;;;;;2.53;1.00;;;21.80;80.20;;;;;;5029529;28;20472;-79
2023/07/11 06:42:19;;;;;;;2.63;1.02;;;21.90;80.00;;;;;;5030330;28;20042;-79
2023/07/11 06:44:44;;;;;;;1.63;1.23;;;22.00;79.60;;;;;;5026086;28;20065;-78
2023/07/11 06:47:10;;;;;;;2.53;0.90;;;22.10;80.20;;;;;;5028359;28;20111;-78
2023/07/11 06:49:35;;;;;;;4.13;0.82;;;22.10;79.20;;;;;;5041555;28;20029;-78
2023/07/11 06:52:02;;;;;;;1.52;0.90;;;22.20;79.10;;;;;;5032153;28;20042;-78
2023/07/11 06:54:28;;;;;;;3.25;1.30;;;22.10;78.70;;;;;;5041773;28;20042;-78
2023/07/11 06:56:54;;;;;;;1.65;0.88;;;22.20;78.80;;;;;;5049085;28;20053;-78
2023/07/11 06:59:20;;;;;;;1.08;0.95;;;22.20;78.60;;;;;;5046587;28;20036;-78
2023/07/11 07:01:46;;;;;;;2.88;1.45;;;22.20;79.30;;;;;;5064732;28;20049;-78
2023/07/11 07:04:13;;;;;;;2.15;0.90;;;22.30;78.50;;;;;;5051546;28;20039;-78
2023/07/11 07:06:40;;;;;;;1.80;0.90;;;22.20;78.30;;;;;;5035081;28;20563;-78
2023/07/11 07:09:05;;;;;;;1.60;1.10;;;22.30;78.30;;;;;;5048274;28;20037;-78
2023/07/11 07:11:31;;;;;;;1.80;1.02;;;22.30;78.20;;;;;;5032183;28;20125;-78
2023/07/11 07:13:56;;;;;;;3.75;1.58;;;22.30;78.10;;;;;;5046158;28;20048;-78
2023/07/11 07:16:22;;;;;;;1.35;0.90;;;22.30;77.90;;;;;;5042071;28;20036;-79
2023/07/11 07:18:47;;;;;;;1.15;1.05;;;22.30;77.70;;;;;;5033097;28;20092;-78
2023/07/11 07:21:13;;;;;;;1.48;1.08;;;22.30;77.60;;;;;;5060147;28;20479;-79
2023/07/11 07:23:38;;;;;;;1.30;1.05;;;22.40;77.50;;;;;;5036044;28;20477;-78
2023/07/11 07:26:04;;;;;;;1.95;1.20;;;22.40;77.40;;;;;;5054969;28;20033;-79
2023/07/11 07:28:30;;;;;;;1.10;0.77;;;22.40;77.20;;;;;;5055681;28;20494;-78
2023/07/11 07:30:56;;;;;;;1.48;0.80;;;22.40;77.00;;;;;;5073793;28;20045;-78
2023/07/11 07:33:23;;;;;;;1.35;0.93;;;22.40;76.90;;;;;;5052160;28;20031;-78
2023/07/11 07:35:49;;;;;;;1.13;0.80;;;22.40;76.80;;;;;;5051195;28;20032;-78
2023/07/11 07:38:14;;;;;;;1.15;0.80;;;22.50;76.70;;;;;;5034112;28;20039;-78
2023/07/11 07:40:40;;;;;;;2.22;1.00;;;22.50;76.70;;;;;;5024783;28;20822;-78
2023/07/11 07:43:06;;;;;;;0.98;0.82;;;22.50;76.60;;;;;;5043426;28;20041;-78
2023/07/11 07:45:31;;;;;;;1.15;0.73;;;22.50;76.40;;;;;;5028559;28;20072;-79
2023/07/11 07:47:57;;;;;;;1.05;0.93;;;22.50;76.30;;;;;;5010590;28;20044;-78
2023/07/11 07:50:22;;;;;;;0.85;0.80;;;22.50;76.20;;;;;;5031776;28;20033;-78
2023/07/11 07:52:48;;;;;;;0.77;0.77;;;22.50;76.10;;;;;;5031466;28;20398;-78
2023/07/11 07:55:13;;;;;;;1.20;0.70;;;22.50;76.80;;;;;;5039696;28;20091;-78
2023/07/11 07:57:39;;;;;;;1.38;0.82;;;22.50;76.00;;;;;;5046754;28;20041;-78
2023/07/11 08:00:05;;;;;;;1.00;0.90;;;22.60;75.90;;;;;;5022069;28;20045;-78
2023/07/11 08:02:31;;;;;;;1.05;0.95;;;22.60;75.90;;;;;;5048423;28;20379;-78
2023/07/11 08:04:58;;;;;;;0.90;0.77;;;22.60;75.80;;;;;;5033448;28;20144;-78
2023/07/11 08:07:25;;;;;;;1.55;0.95;;;22.60;75.70;;;;;;5020487;28;20037;-78
2023/07/11 08:09:50;;;;;;;2.05;1.08;;;22.60;75.70;;;;;;5070533;28;20069;-78
2023/07/11 08:12:16;;;;;;;1.58;0.90;;;22.70;75.70;;;;;;5049383;28;20124;-78
2023/07/11 08:14:42;;;;;;;1.08;0.70;;;22.70;75.40;;;;;;5034941;28;20041;-78
2023/07/11 08:17:08;;;;;;;0.95;0.77;;;22.70;75.40;;;;;;5033339;28;20486;-78
2023/07/11 08:19:34;;;;;;;0.98;0.82;;;22.70;75.00;;;;;;5060319;28;20061;-78
2023/07/11 08:21:59;;;;;;;1.70;0.95;;;22.70;75.00;;;;;;5065301;28;20084;-78
2023/07/11 08:24:26;;;;;;;0.68;0.50;;;22.80;74.90;;;;;;5036644;28;20045;-78
2023/07/11 08:26:51;;;;;;;1.05;0.60;;;22.80;74.60;;;;;;5032996;28;20068;-78
2023/07/11 08:29:17;;;;;;;0.88;0.60;;;22.80;74.50;;;;;;5032575;28;20427;-78
2023/07/11 08:31:43;;;;;;;1.20;0.73;;;22.80;74.50;;;;;;5041875;28;20053;-78
2023/07/11 08:34:08;;;;;;;0.50;0.43;;;22.80;74.60;;;;;;5029140;28;20072;-79
2023/07/11 08:36:36;;;;;;;0.90;0.68;;;22.80;74.50;;;;;;5029576;28;20128;-78
2023/07/11 08:39:02;;;;;;;0.90;0.90;;;22.80;74.50;;;;;;5030470;28;20045;-77
2023/07/11 08:41:51;;;;;;;1.05;0.63;;;22.80;74.40;;;;;;5031500;28;20045;-78
2023/07/11 08:44:17;;;;;;;0.75;0.70;;;22.90;75.20;;;;;;5028290;28;20422;-78
2023/07/11 08:47:03;;;;;;;0.95;0.65;;;22.90;74.40;;;;;;5028846;28;20049;-78
2023/07/11 08:49:37;;;;;;;0.65;0.43;;;22.90;74.30;;;;;;5042586;28;20034;-78
2023/07/11 08:52:03;;;;;;;0.60;0.60;;;22.90;74.20;;;;;;5030582;28;20069;-78
2023/07/11 08:54:38;;;;;;;0.73;0.55;;;22.90;74.20;;;;;;5030708;28;20525;-78
2023/07/11 08:57:04;;;;;;;1.10;0.73;;;22.90;74.10;;;;;;5016065;28;20433;-78
2023/07/11 08:59:37;;;;;;;0.80;0.63;;;22.90;74.00;;;;;;5035426;28;20495;-78
2023/07/11 09:02:08;;;;;;;0.60;0.60;;;22.90;74.00;;;;;;5030126;28;20052;-78
2023/07/11 09:04:34;;;;;;;0.82;0.50;;;22.90;73.90;;;;;;5032065;28;20530;-78
2023/07/11 09:07:09;;;;;;;0.73;0.73;;;23.00;73.90;;;;;;5016556;28;20033;-78
2023/07/11 09:09:35;;;;;;;0.70;0.70;;;23.00;73.90;;;;;;5040897;28;20038;-78
2023/07/11 09:12:08;;;;;;;1.13;0.70;;;23.00;73.80;;;;;;5029285;28;20048;-78
2023/07/11 09:14:47;;;;;;;1.27;0.97;;;23.00;74.30;;;;;;5048829;28;20587;-78
2023/07/11 09:17:21;;;;;;;1.45;0.73;;;23.00;74.60;;;;;;5012481;28;20717;-78
2023/07/11 09:20:13;;;;;;;0.60;0.60;;;23.00;74.60;;;;;;5031249;28;20100;-78
2023/07/11 09:23:09;;;;;;;1.05;0.95;;;23.00;75.10;;;;;;5045064;28;20057;-81
2023/07/11 09:25:37;;;;;;;0.77;0.60;;;23.00;75.50;;;;;;5022206;28;20514;-82
2023/07/11 09:28:20;;;;;;;0.52;0.50;;;23.00;75.50;;;;;;5039602;28;20064;-79
2023/07/11 09:31:02;;;;;;;1.58;0.57;;;23.10;75.30;;;;;;5042716;28;20103;-81
2023/07/11 09:33:33;;;;;;;0.45;0.45;;;23.10;75.00;;;;;;5026904;28;20107;-79
2023/07/11 09:35:59;;;;;;;0.90;0.80;;;23.00;74.80;;;;;;5023073;28;20494;-80
2023/07/11 09:38:46;;;;;;;1.00;0.50;;;23.10;74.60;;;;;;5018233;28;20090;-79
2023/07/11 09:41:33;;;;;;;0.90;0.60;;;23.10;74.30;;;;;;5041026;28;20041;-79
2023/07/11 09:43:59;;;;;;;0.88;0.63;;;23.10;74.20;;;;;;5027158;28;20064;-78
2023/07/11 09:46:25;;;;;;;0.57;0.50;;;23.20;74.20;;;;;;5034706;28;20175;-79
2023/07/11 09:48:53;;;;;;;0.50;0.50;;;23.20;74.30;;;;;;5027225;28;20098;-78
2023/07/11 09:51:37;;;;;;;0.80;0.68;;;23.20;73.90;;;;;;5049601;28;20045;-78
2023/07/11 09:54:04;;;;;;;;;;;23.10;73.70;;;;;;5050934;28;20052;-77
2023/07/11 09:56:29;;;;;;;0.60;0.40;;;23.20;73.70;;;;;;5047401;28;19920;-78
2023/07/11 09:58:58;;;;;;;0.70;0.70;;;23.20;73.60;;;;;;5051851;28;20045;-78
2023/07/11 10:01:31;;;;;;;0.85;0.70;;;23.30;73.50;;;;;;5050593;28;20041;-78
2023/07/11 10:03:58;;;;;;;0.45;0.45;;;23.20;73.40;;;;;;5055437;28;20536;-79
2023/07/11 10:06:42;;;;;;;0.45;0.45;;;23.20;73.50;;;;;;5049642;28;20059;-79
2023/07/11 10:09:22;;;;;;;0.60;0.50;;;23.20;73.40;;;;;;5048595;28;20592;-78
2023/07/11 10:12:03;;;;;;;0.40;0.40;;;23.30;73.50;;;;;;5020657;28;20132;-79
2023/07/11 10:14:33;;;;;;;0.82;0.60;;;23.30;73.30;;;;;;4985450;28;20041;-80
2023/07/11 10:16:59;;;;;;;0.80;0.80;;;23.30;73.20;;;;;;4971112;28;20056;-81
2023/07/11 10:19:25;;;;;;;0.52;0.52;;;23.30;73.00;;;;;;5021812;28;20073;-79
2023/07/11 10:21:51;;;;;;;0.63;0.57;;;23.30;73.00;;;;;;5006399;28;20065;-79
2023/07/11 10:24:20;;;;;;;0.60;0.60;;;23.30;73.10;;;;;;5002433;28;20072;-79
2023/07/11 10:26:46;;;;;;;0.60;0.60;;;23.30;73.10;;;;;;4988289;28;20045;-79
2023/07/11 10:29:19;;;;;;;0.65;0.50;;;23.30;73.10;;;;;;4987680;28;21736;-79
2023/07/11 10:31:49;;;;;;;2.28;0.60;;;23.30;73.10;;;;;;4998042;28;20057;-78
2023/07/11 10:34:29;;;;;;;0.60;0.60;;;23.30;73.10;;;;;;5007418;28;20077;-78
2023/07/11 10:37:02;;;;;;;0.52;0.30;;;23.30;73.00;;;;;;5026609;28;20048;-78
2023/07/11 10:39:51;;;;;;;0.40;0.40;;;23.30;72.90;;;;;;5025276;28;20084;-78
2023/07/11 10:42:31;;;;;;;0.50;0.40;;;23.30;72.90;;;;;;5002129;28;20049;-79
2023/07/11 10:45:07;;;;;;;0.70;0.55;;;23.30;73.00;;;;;;5009649;28;20127;-79
2023/07/11 10:47:34;;;;;;;0.52;0.40;;;23.30;72.80;;;;;;5029192;28;20052;-78
2023/07/11 10:50:02;;;;;;;0.30;0.30;;;23.30;72.80;;;;;;5042751;28;20041;-78
2023/07/11 10:52:30;;;;;;;1.27;0.35;;;23.40;72.90;;;;;;5028510;28;20055;-77
2023/07/11 10:55:15;;;;;;;0.43;0.40;;;23.30;72.80;;;;;;5029952;28;20045;-78
2023/07/11 10:57:50;;;;;;;0.40;0.40;;;23.30;72.80;;;;;;5034022;28;20116;-78
2023/07/11 11:00:43;;;;;;;0.50;0.50;;;23.40;72.80;;;;;;5045518;28;20080;-77
2023/07/11 11:03:20;;;;;;;0.45;0.40;;;23.40;72.70;;;;;;4993254;28;20041;-78
2023/07/11 11:06:04;;;;;;;0.80;0.60;;;23.40;72.70;;;;;;5015927;28;20522;-77
2023/07/11 11:08:35;;;;;;;1.63;0.32;;;23.40;72.70;;;;;;5009576;28;20113;-78
2023/07/11 11:11:09;;;;;;;0.50;0.38;;;23.40;72.90;;;;;;4987788;28;20501;-78
2023/07/11 11:14:10;;;;;;;1.45;0.60;;;23.40;73.30;;;;;;5000894;28;20542;-78
2023/07/11 11:16:41;;;;;;;0.50;0.50;;;23.40;73.50;;;;;;4991732;28;20033;-77
2023/07/11 11:19:13;;;;;;;0.45;0.40;;;23.40;73.80;;;;;;5012967;28;20041;-77
2023/07/11 11:21:52;;;;;;;0.40;0.40;;;23.40;74.40;;;;;;5013809;28;20085;-77
2023/07/11 11:24:17;;;;;;;0.80;0.70;;;23.50;74.90;;;;;;5018319;28;20037;-78
2023/07/11 11:27:06;;;;;;;0.73;0.63;;;23.50;75.60;;;;;;5025260;28;20107;-75
2023/07/11 11:29:51;;;;;;;0.70;0.68;;;23.50;75.50;;;;;;5023574;28;20116;-77
2023/07/11 11:32:47;;;;;;;1.15;0.80;;;23.60;76.40;;;;;;5033406;28;20045;-77
2023/07/11 11:35:34;;;;;;;2.88;2.13;;;23.60;77.10;;;;;;5038894;28;20093;-76
2023/07/11 11:38:08;;;;;;;1.50;1.38;;;23.60;77.60;;;;;;5042587;28;20064;-79
2023/07/11 11:40:37;;;;;;;1.25;1.02;;;23.60;78.40;;;;;;5021834;28;20120;-77
2023/07/11 11:43:09;;;;;;;0.85;0.85;;;23.60;77.60;;;;;;5017961;28;20038;-78
2023/07/11 11:45:35;;;;;;;1.05;0.90;;;23.60;76.80;;;;;;5053586;28;20098;-77
2023/07/11 11:48:02;;;;;;;2.50;0.52;;;23.70;76.50;;;;;;5062643;28;20056;-80
2023/07/11 11:50:28;;;;;;;0.75;0.65;;;23.70;76.30;;;;;;5045313;28;20128;-78
2023/07/11 11:53:09;;;;;;;0.65;0.60;;;23.70;76.30;;;;;;5046461;28;20141;-77
2023/07/11 11:55:36;;;;;;;0.62;0.62;;;23.70;76.00;;;;;;4713436;28;10000827;-77
2023/07/11 11:58:01;;;;;;;0.60;0.55;;;23.70;75.60;;;;;;5035070;28;20513;-78
2023/07/11 12:00:47;;;;;;;0.93;0.70;;;23.70;75.50;;;;;;5023574;28;20042;-77
2023/07/11 12:03:24;;;;;;;0.55;0.55;;;23.70;75.30;;;;;;5041086;28;20052;-77
2023/07/11 12:05:51;;;;;;;0.52;0.52;;;23.80;75.40;;;;;;5024992;28;20065;-77
2023/07/11 12:08:30;;;;;;;0.70;0.60;;;23.70;75.40;;;;;;5013183;28;20052;-77
2023/07/11 12:11:07;;;;;;;2.97;0.55;;;23.70;75.30;;;;;;5011224;28;20042;-78
2023/07/11 12:13:34;;;;;;;1.75;0.73;;;23.70;75.50;;;;;;5035071;28;20113;-78
2023/07/11 12:16:27;;;;;;;1.10;0.52;;;23.70;75.50;;;;;;5036350;28;20538;-79
2023/07/11 12:18:56;;;;;;;1.25;0.63;;;23.70;75.60;;;;;;5058877;28;20049;-78
2023/07/11 12:21:27;;;;;;;1.25;0.68;;;23.70;75.50;;;;;;5050225;28;20422;-78
2023/07/11 12:23:53;;;;;;;0.68;0.60;;;23.70;76.30;;;;;;5022556;28;20045;-78
2023/07/11 12:26:24;;;;;;;0.73;0.60;;;23.70;75.40;;;;;;5027252;28;20046;-77
2023/07/11 12:28:51;;;;;;;0.55;0.40;;;23.70;75.40;;;;;;5029977;28;20045;-77
2023/07/11 12:31:20;;;;;;;0.70;0.70;;;23.70;75.50;;;;;;5026299;28;20591;-78
2023/07/11 12:33:59;;;;;;;0.82;0.63;;;23.70;75.40;;;;;;5028859;28;20049;-77
2023/07/11 12:37:04;;;;;;;0.50;0.47;;;23.70;76.10;;;;;;5033850;28;20104;-77
2023/07/11 12:39:50;;;;;;;;;;;23.70;75.20;;;;;;5030695;28;20502;-77
2023/07/11 12:42:39;;;;;;;0.70;0.50;;;23.70;75.10;;;;;;5032703;28;19925;-77
2023/07/11 12:45:15;;;;;;;0.70;0.70;;;23.70;74.60;;;;;;5027502;28;20041;-77
2023/07/11 12:47:41;;;;;;;0.90;0.90;;;23.70;74.60;;;;;;5014352;28;20068;-79
2023/07/11 12:50:21;;;;;;;0.50;0.50;;;23.70;74.50;;;;;;5026215;28;20054;-78
2023/07/11 12:52:57;;;;;;;0.43;0.43;;;23.70;74.40;;;;;;5041479;28;20046;-77
2023/07/11 12:55:23;;;;;;;1.65;0.70;;;23.70;74.40;;;;;;5026677;28;20050;-78